• Join FlightAware (Why Join?)
  • Login
  • US Flag 
07:03AM EDT


 

Airport Tracker/Info


-or-


 

Live Flight TrackerFlight Track Log ✈ SWA943 ✈ 06-Jul-2014 ✈ KIND - KHOU

Flight Track Log - Related Links

Times and Time Zones

All times are in EDT time to prevent confusion due to time zone crossing. See the SWA943 flight status page for this flight to view local times or setup timezone preferences in your user account.

Time Position Orientation Groundspeed Altitude Reporting Facility
EDT Latitude Longitude Course Direction KTS MPH feet Rate Location/Type
06:52AM 39.7000 -86.3167 270° West 153 176 1,500  Level Indianapolis TRACON
06:53AM 39.7000 -86.3333 270° West 151 174 2,500 1,740 Climbing Indianapolis TRACON
06:54AM 39.6678 -86.3833 230° Southwest 188 216 4,000 2,160 Climbing Indianapolis Center
06:55AM 39.6358 -86.4569 241° Southwest 228 262 6,700 3,120 Climbing Indianapolis Center
06:56AM 39.5989 -86.5414 240° Southwest 259 298 10,400 2,640 Climbing Indianapolis Center
06:57AM 39.5508 -86.6372 237° Southwest 318 366 12,100 2,280 Climbing Indianapolis Center
06:58AM 39.4717 -86.7172 218° Southwest 359 413 15,000 2,520 Climbing Indianapolis Center
06:59AM 39.3783 -86.7825 208° Southwest 378 435 17,300 2,280 Climbing Indianapolis Center
07:00AM 39.2806 -86.8525 209° Southwest 397 457 19,600 2,220 Climbing Indianapolis Center
07:01AM 39.1764 -86.9239 208° Southwest 418 481 21,800 1,980 Climbing Indianapolis Center
07:02AM 39.0733 -86.9936 208° Southwest 432 497 23,700 2,100 Climbing Indianapolis Center
07:03AM 38.9400 -87.0844 208° Southwest 446 513 26,100 2,040 Climbing Indianapolis Center
07:04AM 38.8269 -87.1606 208° Southwest 453 521 27,900 1,680 Climbing Indianapolis Center
07:05AM 38.7167 -87.2467 211° Southwest 461 531 29,600 1,920 Climbing Indianapolis Center
07:06AM 38.6086 -87.3344 212° Southwest 462 532 31,800 1,920 Climbing Indianapolis Center
07:07AM 38.5025 -87.4169 211° Southwest 456 525 33,500 1,500 Climbing Indianapolis Center
07:08AM 38.3958 -87.4994 211° Southwest 455 524 34,900 1,380 Climbing Indianapolis Center
07:09AM 38.2886 -87.5811 211° Southwest 455 524 36,400 1,500 Climbing Indianapolis Center
07:10AM 38.1828 -87.6639 212° Southwest 454 522 38,000 780 Climbing Indianapolis Center
07:11AM 38.0794 -87.7425 211° Southwest 439 505 38,000  Level Indianapolis Center
07:12AM 37.9750 -87.8225 211° Southwest 439 505 38,000  Level Indianapolis Center
07:13AM 37.8706 -87.9003 210° Southwest 438 504 38,000  Level Indianapolis Center
07:14AM 37.7667 -87.9806 211° Southwest 437 503 38,000  Level Indianapolis Center
07:15AM 37.6639 -88.0586 211° Southwest 437 503 38,000  Level Indianapolis Center
07:15AM 37.5769 -88.1239 211° Southwest 437 503 38,000  Level Memphis Center
07:16AM 37.4778 -88.2106 215° Southwest 436 502 38,000  Level Memphis Center
07:18AM 37.3778 -88.2978 215° Southwest 436 502 38,000  Level Memphis Center
07:19AM 37.2783 -88.3861 215° Southwest 436 502 38,000  Level Memphis Center
07:20AM 37.1781 -88.4733 215° Southwest 436 502 38,000  Level Memphis Center
07:21AM 37.0781 -88.5611 215° Southwest 436 502 38,000  Level Memphis Center
07:22AM 36.9778 -88.6489 215° Southwest 437 503 38,000  Level Memphis Center
07:23AM 36.8769 -88.7350 214° Southwest 437 503 38,000  Level Memphis Center
07:24AM 36.7767 -88.8225 215° Southwest 437 503 38,000  Level Memphis Center
07:25AM 36.6753 -88.9092 214° Southwest 438 504 38,000  Level Memphis Center
07:26AM 36.5742 -88.9958 215° Southwest 438 504 38,000  Level Memphis Center
07:27AM 36.4722 -89.0822 214° Southwest 438 504 38,000  Level Memphis Center
07:28AM 36.3678 -89.1656 213° Southwest 439 505 38,000  Level Memphis Center
07:29AM 36.2611 -89.2581 215° Southwest 447 514 38,000  Level Memphis Center
07:30AM 36.1583 -89.3472 215° Southwest 447 514 38,000  Level Memphis Center
07:31AM 36.0586 -89.4333 215° Southwest 441 507 38,000  Level Memphis Center
07:32AM 35.9586 -89.5183 215° Southwest 436 502 38,000  Level Memphis Center
07:33AM 35.8561 -89.6050 214° Southwest 438 504 38,000  Level Memphis Center
07:34AM 35.7536 -89.6908 214° Southwest 440 506 38,000  Level Memphis Center
07:35AM 35.6550 -89.7725 214° Southwest 440 506 38,000  Level Memphis Center
07:36AM 35.5533 -89.8586 215° Southwest 442 509 38,000  Level Memphis Center
07:37AM 35.4500 -89.9433 214° Southwest 443 510 38,000  Level Memphis Center
07:38AM 35.3275 -90.0450 214° Southwest 444 511 38,000  Level Memphis Center
07:39AM 35.2239 -90.1294 214° Southwest 445 512 38,000  Level Memphis Center
07:40AM 35.1225 -90.2142 214° Southwest 446 513 38,000  Level Memphis Center
07:41AM 35.0192 -90.2978 214° Southwest 446 513 38,000  Level Memphis Center
07:42AM 34.9169 -90.3814 214° Southwest 446 513 38,000  Level Memphis Center
07:43AM 34.8136 -90.4639 213° Southwest 446 513 38,000  Level Memphis Center
07:44AM 34.7114 -90.5469 214° Southwest 446 513 38,000  Level Memphis Center
07:45AM 34.6089 -90.6303 214° Southwest 446 513 38,000  Level Memphis Center
07:46AM 34.5056 -90.7122 213° Southwest 446 513 38,000  Level Memphis Center
07:47AM 34.4017 -90.7961 214° Southwest 447 514 38,000  Level Memphis Center
07:48AM 34.2764 -90.8961 213° Southwest 450 518 38,000  Level Memphis Center
07:49AM 34.1703 -90.9800 213° Southwest 450 518 38,000  Level Memphis Center
07:50AM 34.0650 -91.0639 213° Southwest 453 521 38,000  Level Memphis Center
07:51AM 33.9608 -91.1478 214° Southwest 453 521 38,000  Level Memphis Center
07:52AM 33.8547 -91.2294 213° Southwest 453 521 38,000  Level Memphis Center
07:53AM 33.7419 -91.3203 214° Southwest 453 521 38,000  Level Memphis Center
07:54AM 33.6369 -91.4006 212° Southwest 453 521 38,000  Level Memphis Center
07:55AM 33.5331 -91.4833 214° Southwest 453 521 38,000  Level Memphis Center
07:56AM 33.4278 -91.5644 213° Southwest 453 521 38,000  Level Memphis Center
07:57AM 33.3239 -91.6456 213° Southwest 453 521 38,000  Level Memphis Center
07:58AM 33.2200 -91.7264 213° Southwest 452 520 38,000  Level Memphis Center
07:59AM 33.1150 -91.8075 213° Southwest 452 520 38,000  Level Memphis Center
08:00AM 33.0214 -91.8797 213° Southwest 452 520 38,000  Level Fort Worth Center
08:01AM 32.9153 -91.9606 213° Southwest 454 522 38,000  Level Fort Worth Center
08:02AM 32.8092 -92.0422 213° Southwest 453 521 38,000  Level Fort Worth Center
08:03AM 32.7044 -92.1242 213° Southwest 451 519 38,000  Level Fort Worth Center
08:04AM 32.6044 -92.2039 214° Southwest 452 520 38,000  Level Fort Worth Center
08:05AM 32.4986 -92.2836 212° Southwest 453 521 38,000  Level Fort Worth Center
08:06AM 32.3933 -92.3644 213° Southwest 452 520 38,000  Level Fort Worth Center
08:07AM 32.2878 -92.4442 213° Southwest 452 520 38,000  Level Fort Worth Center
08:08AM 32.1608 -92.5389 212° Southwest 451 519 38,000  Level Fort Worth Center
08:09AM 32.0561 -92.6181 213° Southwest 451 519 38,000  Level Fort Worth Center
08:10AM 31.9525 -92.6989 214° Southwest 451 519 38,000  Level Fort Worth Center
08:11AM 31.8578 -92.7925 220° Southwest 450 518 38,000  Level Fort Worth Center
08:12AM 31.7608 -92.8842 219° Southwest 451 519 38,000  Level Fort Worth Center
08:13AM 31.6653 -92.9767 219° Southwest 452 520 38,000  Level Fort Worth Center
08:14AM 31.5678 -93.0700 219° Southwest 454 522 38,000  Level Fort Worth Center
08:15AM 31.4706 -93.1625 219° Southwest 456 525 38,000  Level Fort Worth Center
08:16AM 31.3742 -93.2550 219° Southwest 453 521 38,000  Level Fort Worth Center
08:17AM 31.2569 -93.3664 219° Southwest 453 521 38,000  Level Fort Worth Center
08:18AM 31.1600 -93.4586 219° Southwest 453 521 38,000  Level Fort Worth Center
08:19AM 31.0625 -93.5506 219° Southwest 453 521 38,000  Level Fort Worth Center
08:20AM 30.9644 -93.6428 219° Southwest 453 521 38,000  Level Fort Worth Center
08:21AM 30.8678 -93.7350 219° Southwest 453 521 38,000 -420 Level Fort Worth Center
08:23AM 30.7358 -93.8600 219° Southwest 452 520 37,100 -1,740 Descending Houston Center
08:23AM 30.6364 -93.9544 219° Southwest 460 529 34,100 -3,000 Descending Houston Center
08:24AM 30.6369 -93.9528 69° East 457 526 34,100 -3,000 Level Houston Center
08:24AM 30.5864 -94.0000 219° Southwest 464 534 32,600 -3,840 Descending Houston Center
08:25AM 30.5144 -94.0675 219° Southwest 472 543 30,200 -3,240 Descending Houston Center
08:25AM 30.4694 -94.1106 220° Southwest 485 558 29,000 -2,700 Descending Houston Center
08:26AM 30.4100 -94.1650 218° Southwest 483 556 27,500 -2,640 Descending Houston Center
08:26AM 30.3539 -94.2181 219° Southwest 477 549 26,100 -2,460 Descending Houston Center
08:27AM 30.3097 -94.2572 217° Southwest 470 541 25,000 -1,980 Descending Houston Center
08:27AM 30.2558 -94.3086 219° Southwest 450 518 24,100 -1,500 Descending Houston Center
08:28AM 30.2272 -94.3542 234° Southwest 429 494 23,500 -1,800 Descending Houston Center
08:28AM 30.2047 -94.4289 251° West 407 468 22,300 -2,100 Descending Houston Center
08:29AM 30.1925 -94.4783 254° West 408 470 21,400 -2,100 Descending Houston Center
08:29AM 30.1708 -94.5567 252° West 397 457 20,200 -1,860 Descending Houston Center
08:30AM 30.1606 -94.5936 252° West 399 459 19,500 -1,620 Descending Houston Center
08:30AM 30.1356 -94.6894 253° West 400 460 18,400 -1,620 Descending Houston Center
08:31AM 30.1286 -94.7156 253° West 398 458 17,900 -2,400 Descending Houston Center
08:31AM 30.1028 -94.8094 252° West 398 458 16,000 -2,880 Descending Houston Center
08:32AM 30.0894 -94.8597 253° West 398 458 15,000 -1,980 Descending Houston Center
08:32AM 30.0686 -94.9347 252° West 384 442 14,000 -1,020 Descending Houston Center
08:33AM 30.0581 -94.9744 253° West 382 440 14,000 -840 Level Houston Center
08:33AM 30.0358 -95.0547 252° West 354 407 13,100 -1,500 Descending Houston Center
08:34AM 30.0294 -95.0811 254° West 357 411 12,500 -2,280 Descending Houston Center
08:34AM 30.0025 -95.1481 245° Southwest 343 395 11,100 -1,980 Descending Houston Center
08:35AM 29.9761 -95.1658 210° Southwest 348 400 10,500 -1,020 Descending Houston Center
08:35AM 29.9258 -95.1817 195° South 320 368 10,200 -540 Descending Houston Center
08:36AM 29.8908 -95.1914 194° South 324 373 10,000 -1,020 Descending Houston Center
08:36AM 29.8358 -95.2069 194° South 289 333 9,100 -1,380 Descending Houston Center
08:37AM 29.8125 -95.2158 198° South 299 344 8,600 -1,500 Descending Houston Center
08:37AM 29.7564 -95.2336 195° South 288 331 7,600 -1,500 Descending Houston Center
08:38AM 29.7361 -95.2397 195° South 289 333 7,100 -1,560 Descending Houston Center
08:38AM 29.6794 -95.2428 183° South 274 315 6,000 -1,500 Descending Houston Center
08:39AM 29.6603 -95.2425 179° South 280 322 5,600 -1,140 Descending Houston Center
08:39AM 29.6039 -95.2425 180° South 254 292 4,900 -900 Descending Houston Center
08:40AM 29.5786 -95.2417 178° South 255 293 4,700 -660 Descending Houston Center
08:41AM 29.5475 -95.2708 219° Southwest 215 247 4,200 -1,200 Descending Houston Center
08:41AM 29.5517 -95.2889 285° West 224 258 3,500 -2,400 Descending Houston Center
08:42AM 29.5806 -95.3317 308° West 231 266 1,800 -2,100 Descending Houston Center
08:42AM 29.5975 -95.3356 349° North 226 260 1,400 -1,020 Descending Houston Center
08:43AM 29.6183 -95.3081 49° Northeast 162 186 900 -1,020 Descending Houston Center
08:43AM 29.6297 -95.2953 44° Northeast 190 219 400 -1,200 Descending Houston Center